Time;durP1;ratioP1;P1;durP2;ratioP2;P2;SDS_P1;SDS_P2;PMS_P1;PMS_P2;Temp;Humidity;BMP_temperature;BMP_pressure;BME280_temperature;BME280_humidity;BME280_pressure;Samples;Min_cycle;Max_cycle;Signal;HPM_P1;HPM_P2
2021/10/08 00:01:30;;;;;;;0.50;0.40;;;12.10;97.30;;;;;;5023755;28;20178;-83
2021/10/08 00:03:55;;;;;;;0.70;0.60;;;11.90;97.40;;;;;;5023769;28;20409;-83
2021/10/08 00:06:22;;;;;;;1.03;0.70;;;11.90;97.70;;;;;;5023208;28;20196;-83
2021/10/08 00:08:48;;;;;;;0.50;0.45;;;11.90;97.90;;;;;;5024116;28;20508;-83
2021/10/08 00:11:15;;;;;;;0.45;0.40;;;11.90;98.00;;;;;;5024146;28;20170;-83
2021/10/08 00:13:40;;;;;;;1.30;1.20;;;11.80;98.40;;;;;;5023999;28;20174;-83
2021/10/08 00:16:06;;;;;;;0.40;0.40;;;11.80;98.30;;;;;;5024259;28;20202;-83
2021/10/08 00:18:33;;;;;;;0.75;0.70;;;11.80;98.20;;;;;;5023425;28;20174;-83
2021/10/08 00:21:00;;;;;;;0.93;0.82;;;11.80;98.20;;;;;;5023151;28;20166;-83
2021/10/08 00:23:26;;;;;;;0.60;0.60;;;11.90;98.30;;;;;;5022084;28;20189;-83
2021/10/08 00:25:52;;;;;;;0.60;0.50;;;11.90;98.40;;;;;;5021960;28;20170;-82
2021/10/08 00:28:17;;;;;;;0.70;0.60;;;11.90;98.30;;;;;;5023036;28;20319;-83
2021/10/08 00:30:43;;;;;;;0.80;0.70;;;11.80;98.10;;;;;;5022434;28;20923;-82
2021/10/08 00:33:10;;;;;;;1.00;0.90;;;11.80;98.00;;;;;;5022584;28;20428;-83
2021/10/08 00:35:36;;;;;;;0.63;0.57;;;11.80;98.00;;;;;;5022056;28;20489;-83
2021/10/08 00:38:06;;;;;;;1.25;1.15;;;11.80;97.80;;;;;;5022872;28;20766;-82
2021/10/08 00:40:41;;;;;;;2.53;0.70;;;11.90;97.60;;;;;;5023053;28;20170;-82
2021/10/08 00:43:08;;;;;;;1.15;0.70;;;11.80;97.50;;;;;;5022437;28;20376;-83
2021/10/08 00:45:35;;;;;;;3.42;1.25;;;11.80;97.20;;;;;;5022352;28;20201;-83
2021/10/08 00:48:07;;;;;;;0.55;0.47;;;11.70;97.20;;;;;;5040850;28;20616;-82
2021/10/08 00:50:42;;;;;;;0.60;0.52;;;11.70;97.20;;;;;;5022916;28;20173;-83
2021/10/08 00:53:09;;;;;;;0.60;0.50;;;11.70;97.20;;;;;;5021457;28;20169;-83
2021/10/08 00:55:39;;;;;;;0.70;0.63;;;11.60;97.10;;;;;;5021405;28;20181;-83
2021/10/08 00:58:06;;;;;;;0.77;0.68;;;11.50;97.00;;;;;;5021462;28;20194;-83
2021/10/08 01:00:32;;;;;;;1.80;1.17;;;11.50;97.10;;;;;;5021572;28;20174;-83
2021/10/08 01:02:58;;;;;;;0.85;0.60;;;11.40;97.10;;;;;;5021534;28;20260;-83
2021/10/08 01:05:23;;;;;;;1.23;0.80;;;11.40;97.10;;;;;;5021386;28;20166;-83
2021/10/08 01:07:49;;;;;;;0.50;0.40;;;11.40;97.10;;;;;;5021542;28;20449;-83
2021/10/08 01:10:15;;;;;;;0.60;0.50;;;11.30;97.10;;;;;;5020103;28;20422;-83
2021/10/08 01:12:41;;;;;;;0.93;0.82;;;11.30;96.80;;;;;;5019008;28;20228;-82
2021/10/08 01:15:08;;;;;;;0.50;0.40;;;11.30;96.80;;;;;;5019062;28;20178;-83
2021/10/08 01:17:34;;;;;;;1.77;1.02;;;11.20;97.00;;;;;;5018229;28;20484;-82
2021/10/08 01:20:08;;;;;;;1.05;0.95;;;11.10;97.10;;;;;;5018847;28;20190;-83
2021/10/08 01:22:34;;;;;;;0.85;0.55;;;11.10;97.20;;;;;;5018569;28;20268;-83
2021/10/08 01:25:00;;;;;;;0.60;0.50;;;11.10;97.40;;;;;;5018526;28;20181;-83
2021/10/08 01:27:26;;;;;;;0.73;0.63;;;11.00;97.50;;;;;;5018360;28;20198;-82
2021/10/08 01:29:58;;;;;;;1.25;1.10;;;11.00;97.80;;;;;;5017916;28;20173;-83
2021/10/08 01:32:25;;;;;;;0.40;0.40;;;10.90;98.20;;;;;;5018218;28;20182;-82
2021/10/08 01:34:51;;;;;;;0.60;0.50;;;10.90;98.30;;;;;;5018174;28;20206;-82
2021/10/08 01:37:18;;;;;;;0.60;0.50;;;10.90;98.40;;;;;;5017756;28;20236;-82
2021/10/08 01:39:44;;;;;;;1.05;0.95;;;10.80;98.30;;;;;;5018188;28;20523;-82
2021/10/08 01:42:11;;;;;;;0.40;0.40;;;10.80;98.50;;;;;;5018456;28;20170;-82
2021/10/08 01:44:37;;;;;;;0.75;0.75;;;10.70;98.60;;;;;;5018447;28;20588;-82
2021/10/08 01:47:03;;;;;;;0.65;0.55;;;10.60;98.70;;;;;;5018189;28;20194;-81
2021/10/08 01:49:29;;;;;;;0.90;0.80;;;10.60;98.80;;;;;;5017984;28;20285;-81
2021/10/08 01:51:55;;;;;;;1.15;1.05;;;10.60;99.00;;;;;;5017636;28;20423;-81
2021/10/08 01:54:21;;;;;;;0.60;0.50;;;10.60;99.10;;;;;;5017761;28;20174;-81
2021/10/08 01:56:47;;;;;;;0.60;0.50;;;10.60;99.10;;;;;;5017965;28;20214;-81
2021/10/08 01:59:14;;;;;;;1.43;0.60;;;10.50;99.10;;;;;;5017700;28;20166;-82
2021/10/08 02:01:41;;;;;;;0.63;0.52;;;10.50;99.10;;;;;;5018194;28;20193;-82
2021/10/08 02:04:07;;;;;;;0.80;0.73;;;10.50;99.10;;;;;;5017886;28;20170;-82
2021/10/08 02:06:33;;;;;;;0.40;0.40;;;10.50;99.10;;;;;;5018705;28;20190;-82
2021/10/08 02:08:59;;;;;;;0.70;0.60;;;10.50;99.10;;;;;;5018110;28;20783;-82
2021/10/08 02:11:25;;;;;;;1.25;1.15;;;10.40;99.10;;;;;;5018031;28;20184;-81
2021/10/08 02:13:51;;;;;;;1.00;0.90;;;10.40;99.10;;;;;;5017706;28;20567;-80
2021/10/08 02:16:20;;;;;;;1.38;0.93;;;10.40;99.10;;;;;;5017989;28;20952;-81
2021/10/08 02:18:49;;;;;;;0.40;0.40;;;10.30;99.10;;;;;;5018334;28;20523;-81
2021/10/08 02:21:15;;;;;;;0.70;0.60;;;10.30;99.10;;;;;;5017730;28;20178;-81
2021/10/08 02:23:41;;;;;;;0.50;0.50;;;10.30;99.10;;;;;;5018352;28;20166;-82
2021/10/08 02:26:07;;;;;;;1.20;1.10;;;10.20;99.10;;;;;;5017955;28;20441;-82
2021/10/08 02:28:33;;;;;;;1.02;0.93;;;10.20;99.10;;;;;;5018186;28;20170;-82
2021/10/08 02:30:59;;;;;;;0.73;0.63;;;10.20;99.10;;;;;;5018270;28;20662;-81
2021/10/08 02:33:25;;;;;;;0.60;0.50;;;10.10;99.10;;;;;;5018024;28;20948;-82
2021/10/08 02:35:51;;;;;;;1.38;1.27;;;10.10;99.10;;;;;;5018174;28;20463;-82
2021/10/08 02:38:20;;;;;;;0.88;0.77;;;10.10;99.10;;;;;;5018793;28;20170;-81
2021/10/08 02:40:46;;;;;;;0.40;0.40;;;10.10;99.10;;;;;;5017927;28;20266;-82
2021/10/08 02:43:13;;;;;;;0.68;0.57;;;10.00;99.10;;;;;;5017948;28;20575;-82
2021/10/08 02:45:40;;;;;;;3.38;0.80;;;10.00;99.10;;;;;;5018402;28;20174;-82
2021/10/08 02:48:06;;;;;;;0.95;0.70;;;10.00;99.10;;;;;;5018228;28;20211;-82
2021/10/08 02:50:32;;;;;;;1.15;0.70;;;10.00;99.10;;;;;;5018070;28;20173;-79
2021/10/08 02:52:58;;;;;;;0.93;0.77;;;10.00;99.10;;;;;;5017549;28;20174;-81
2021/10/08 02:55:24;;;;;;;0.57;0.57;;;10.00;99.10;;;;;;5017237;28;20344;-80
2021/10/08 02:57:50;;;;;;;0.82;0.80;;;10.00;99.10;;;;;;5017376;28;20209;-81
2021/10/08 03:00:16;;;;;;;0.60;0.50;;;10.00;99.10;;;;;;5018117;28;20639;-81
2021/10/08 03:02:42;;;;;;;1.00;0.90;;;10.00;99.10;;;;;;5017215;28;20170;-81
2021/10/08 03:05:09;;;;;;;0.40;0.40;;;10.00;99.10;;;;;;5017227;28;20449;-81
2021/10/08 03:07:35;;;;;;;1.30;0.82;;;10.00;99.10;;;;;;5017927;28;20241;-82
2021/10/08 03:10:01;;;;;;;0.50;0.40;;;9.90;99.10;;;;;;5016826;28;20701;-82
2021/10/08 03:12:27;;;;;;;1.38;1.33;;;9.90;99.10;;;;;;5017063;28;20176;-82
2021/10/08 03:14:52;;;;;;;0.60;0.50;;;9.90;99.10;;;;;;5017012;28;20261;-82
2021/10/08 03:17:18;;;;;;;0.57;0.50;;;9.90;99.10;;;;;;5016512;28;20269;-82
2021/10/08 03:19:44;;;;;;;0.80;0.77;;;9.90;99.10;;;;;;5016491;28;20413;-82
2021/10/08 03:22:10;;;;;;;1.02;0.93;;;9.90;99.10;;;;;;5017128;28;20420;-82
2021/10/08 03:24:36;;;;;;;3.37;0.77;;;9.80;99.10;;;;;;5016377;28;20185;-82
2021/10/08 03:27:02;;;;;;;0.40;0.40;;;9.80;99.10;;;;;;5016571;28;20451;-82
2021/10/08 03:29:28;;;;;;;0.70;0.60;;;9.80;99.10;;;;;;5016036;28;20897;-81
2021/10/08 03:31:54;;;;;;;0.55;0.47;;;9.80;99.10;;;;;;5016869;28;20273;-81
2021/10/08 03:34:20;;;;;;;0.60;0.50;;;9.80;99.10;;;;;;5019703;28;20220;-82
2021/10/08 03:36:48;;;;;;;3.92;1.02;;;9.80;99.10;;;;;;5020529;28;20831;-81
2021/10/08 03:39:20;;;;;;;0.40;0.40;;;9.80;99.10;;;;;;5020346;28;20165;-82
2021/10/08 03:41:46;;;;;;;1.70;1.60;;;9.80;99.10;;;;;;5019917;28;20549;-81
2021/10/08 03:44:13;;;;;;;0.77;0.57;;;9.70;99.10;;;;;;5020292;28;20220;-81
2021/10/08 03:46:44;;;;;;;0.50;0.40;;;9.60;99.10;;;;;;5020318;28;20684;-81
2021/10/08 03:51:36;;;;;;;0.82;0.70;;;9.60;99.10;;;;;;5038648;28;20182;-82
2021/10/08 03:54:05;;;;;;;0.88;0.70;;;9.50;99.10;;;;;;5020455;28;20659;-81
2021/10/08 03:56:35;;;;;;;0.60;0.50;;;9.50;99.10;;;;;;5019894;28;20225;-82
2021/10/08 03:59:00;;;;;;;0.65;0.55;;;9.60;99.10;;;;;;5019849;28;20252;-82
2021/10/08 04:01:27;;;;;;;0.73;0.63;;;9.50;99.10;;;;;;5020444;28;20166;-82
2021/10/08 04:03:52;;;;;;;1.38;0.60;;;9.50;99.10;;;;;;5019275;28;20909;-81
2021/10/08 04:06:18;;;;;;;15.07;0.97;;;9.50;99.10;;;;;;5019184;28;20243;-82
2021/10/08 04:08:45;;;;;;;0.50;0.50;;;9.50;99.10;;;;;;5019670;28;20220;-81
2021/10/08 04:11:11;;;;;;;1.48;1.38;;;9.50;99.10;;;;;;5020176;28;20420;-82
2021/10/08 04:13:37;;;;;;;1.87;0.87;;;9.50;99.10;;;;;;5021295;28;20205;-82
2021/10/08 04:16:03;;;;;;;0.70;0.60;;;9.50;99.10;;;;;;5020962;28;20200;-81
2021/10/08 04:18:29;;;;;;;1.40;0.70;;;9.40;99.10;;;;;;5020295;28;20413;-82
2021/10/08 04:20:55;;;;;;;0.68;0.57;;;9.40;99.10;;;;;;5019326;28;20177;-81
2021/10/08 04:23:21;;;;;;;0.55;0.45;;;9.40;99.10;;;;;;5018916;28;20543;-82
2021/10/08 04:25:48;;;;;;;0.70;0.65;;;9.40;99.10;;;;;;5019890;28;20187;-82
2021/10/08 04:28:14;;;;;;;0.65;0.60;;;9.40;99.10;;;;;;5019775;28;20173;-82
2021/10/08 04:30:40;;;;;;;0.40;0.40;;;9.40;99.10;;;;;;5019497;28;20174;-81
2021/10/08 04:33:26;;;;;;;0.60;0.50;;;9.40;99.10;;;;;;5019813;28;20429;-83
2021/10/08 04:35:52;;;;;;;0.70;0.65;;;9.40;99.10;;;;;;5020341;28;20821;-82
2021/10/08 04:38:18;;;;;;;0.73;0.63;;;9.40;99.10;;;;;;5020741;28;20232;-82
2021/10/08 04:40:45;;;;;;;0.70;0.60;;;9.30;99.10;;;;;;5019693;28;20170;-82
2021/10/08 04:43:11;;;;;;;1.48;0.88;;;9.30;99.10;;;;;;5020766;28;20174;-83
2021/10/08 04:45:38;;;;;;;0.70;0.60;;;9.30;99.10;;;;;;5019199;28;20182;-82
2021/10/08 04:48:04;;;;;;;3.53;1.73;;;9.30;99.10;;;;;;5020612;28;20198;-83
2021/10/08 04:50:30;;;;;;;0.60;0.53;;;9.30;99.10;;;;;;5019618;28;20170;-83
2021/10/08 04:52:57;;;;;;;3.77;1.83;;;9.20;99.10;;;;;;5019425;28;20409;-82
2021/10/08 04:55:23;;;;;;;0.70;0.60;;;9.20;99.10;;;;;;5019340;28;20473;-82
2021/10/08 04:57:49;;;;;;;0.45;0.40;;;9.20;99.10;;;;;;5019172;28;20698;-84
2021/10/08 05:00:15;;;;;;;0.50;0.50;;;9.20;99.10;;;;;;5018258;28;20724;-80
2021/10/08 05:02:41;;;;;;;0.80;0.70;;;9.20;99.10;;;;;;5018632;28;20196;-81
2021/10/08 05:05:07;;;;;;;0.70;0.60;;;9.20;99.10;;;;;;5018345;28;20184;-80
2021/10/08 05:07:33;;;;;;;2.40;1.00;;;9.10;99.10;;;;;;5019172;28;20427;-81
2021/10/08 05:09:59;;;;;;;0.83;0.73;;;9.10;99.10;;;;;;5019512;28;20177;-82
2021/10/08 05:12:27;;;;;;;0.90;0.80;;;9.10;99.10;;;;;;5018936;28;20960;-81
2021/10/08 05:14:53;;;;;;;0.77;0.68;;;9.10;99.10;;;;;;5018832;28;20180;-81
2021/10/08 05:17:20;;;;;;;1.98;1.30;;;9.10;99.10;;;;;;5018980;28;20216;-81
2021/10/08 05:19:46;;;;;;;0.40;0.40;;;9.10;99.10;;;;;;5018676;28;20320;-81
2021/10/08 05:22:17;;;;;;;0.40;0.40;;;9.10;99.10;;;;;;5019137;28;20692;-82
2021/10/08 05:24:43;;;;;;;0.50;0.40;;;9.10;99.10;;;;;;5018568;28;20420;-82
2021/10/08 05:27:09;;;;;;;1.00;0.80;;;9.10;99.10;;;;;;5018386;28;20197;-81
2021/10/08 05:29:35;;;;;;;0.80;0.70;;;9.10;99.10;;;;;;5019657;28;20269;-82
2021/10/08 05:32:00;;;;;;;1.43;1.23;;;9.10;99.10;;;;;;5019222;28;20260;-82
2021/10/08 05:34:26;;;;;;;1.50;1.40;;;9.10;99.10;;;;;;5019245;28;20223;-82
2021/10/08 05:36:52;;;;;;;0.77;0.68;;;9.10;99.10;;;;;;5018587;28;20547;-82
2021/10/08 05:39:19;;;;;;;2.30;1.20;;;9.10;99.10;;;;;;5018663;28;20205;-82
2021/10/08 05:41:45;;;;;;;0.75;0.65;;;9.10;99.10;;;;;;5018616;28;20229;-81
2021/10/08 05:44:11;;;;;;;0.80;0.70;;;9.10;99.10;;;;;;5018993;28;20174;-81
2021/10/08 05:46:37;;;;;;;0.60;0.50;;;9.10;99.10;;;;;;5018772;28;20201;-83
2021/10/08 05:49:03;;;;;;;1.73;1.63;;;9.10;99.10;;;;;;5019953;28;20638;-81
2021/10/08 05:51:31;;;;;;;1.45;1.38;;;9.10;99.10;;;;;;5019482;28;20630;-81
2021/10/08 05:53:56;;;;;;;0.52;0.50;;;9.10;99.10;;;;;;5018850;28;20264;-79
2021/10/08 05:56:22;;;;;;;2.10;0.50;;;9.10;99.10;;;;;;5019488;28;20318;-83
2021/10/08 05:58:48;;;;;;;2.73;0.60;;;9.10;99.10;;;;;;5021610;28;20403;-83
2021/10/08 06:01:14;;;;;;;1.07;0.70;;;9.10;99.10;;;;;;5019156;28;20998;-83
2021/10/08 06:03:40;;;;;;;0.90;0.80;;;9.10;99.10;;;;;;5017330;28;20192;-81
2021/10/08 06:06:06;;;;;;;1.47;1.37;;;9.10;99.10;;;;;;5010164;28;20288;-80
2021/10/08 06:08:32;;;;;;;1.13;1.03;;;9.10;99.10;;;;;;5005374;28;20507;-81
2021/10/08 06:10:58;;;;;;;0.60;0.50;;;9.10;99.10;;;;;;5017972;28;20428;-80
2021/10/08 06:13:24;;;;;;;0.93;0.87;;;9.10;99.10;;;;;;5018360;28;20177;-81
2021/10/08 06:15:50;;;;;;;3.00;0.60;;;9.20;99.10;;;;;;5018270;28;20511;-81
2021/10/08 06:18:16;;;;;;;0.90;0.80;;;9.20;99.10;;;;;;5018539;28;20259;-81
2021/10/08 06:20:42;;;;;;;1.50;0.83;;;9.20;99.10;;;;;;5018788;28;20543;-81
2021/10/08 06:23:07;;;;;;;2.75;0.63;;;9.20;99.10;;;;;;5002912;28;20182;-81
2021/10/08 06:25:33;;;;;;;0.60;0.50;;;9.30;99.10;;;;;;5015905;28;20193;-81
2021/10/08 06:27:59;;;;;;;0.90;0.80;;;9.30;99.10;;;;;;5018748;28;20193;-81
2021/10/08 06:30:25;;;;;;;1.53;0.60;;;9.30;99.10;;;;;;5036121;28;20440;-81
2021/10/08 06:32:51;;;;;;;1.30;1.20;;;9.40;99.10;;;;;;5018482;28;20424;-81
2021/10/08 06:35:17;;;;;;;0.83;0.63;;;9.40;99.10;;;;;;5018594;28;20174;-81
2021/10/08 06:38:06;;;;;;;1.07;0.87;;;9.40;99.10;;;;;;5020500;28;20471;-84
2021/10/08 06:40:32;;;;;;;0.70;0.60;;;9.50;99.10;;;;;;5002612;28;20413;-84
2021/10/08 06:42:57;;;;;;;0.40;0.40;;;9.50;99.10;;;;;;5020319;28;20170;-84
2021/10/08 06:45:25;;;;;;;2.60;0.73;;;9.50;99.10;;;;;;5020068;28;20669;-84
2021/10/08 06:47:51;;;;;;;5.13;1.15;;;9.60;99.10;;;;;;5019832;28;20444;-85
2021/10/08 06:50:18;;;;;;;3.22;0.85;;;9.60;99.10;;;;;;5020468;28;20181;-85
2021/10/08 06:52:43;;;;;;;1.45;1.15;;;9.60;99.10;;;;;;5019915;28;20184;-85
2021/10/08 06:55:09;;;;;;;1.87;1.73;;;9.70;99.10;;;;;;5019130;28;20258;-85
2021/10/08 06:57:35;;;;;;;0.60;0.50;;;9.80;99.10;;;;;;5020202;28;20206;-85
2021/10/08 07:00:01;;;;;;;1.27;0.70;;;9.80;99.10;;;;;;5018570;28;20260;-85
2021/10/08 07:02:27;;;;;;;0.87;0.77;;;9.90;99.10;;;;;;5017661;28;20272;-84
2021/10/08 07:04:52;;;;;;;1.57;0.93;;;10.00;99.10;;;;;;5018669;28;20408;-85
2021/10/08 07:07:18;;;;;;;1.50;0.77;;;10.00;99.10;;;;;;5018813;28;20210;-85
2021/10/08 07:09:45;;;;;;;3.83;0.73;;;10.00;99.10;;;;;;5022859;28;20185;-85
2021/10/08 07:12:13;;;;;;;1.10;1.00;;;10.10;99.10;;;;;;5104365;23;20221;-83
2021/10/08 07:14:39;;;;;;;1.98;1.02;;;10.20;99.10;;;;;;5042796;28;20196;-83
2021/10/08 07:17:06;;;;;;;2.38;0.98;;;10.30;99.10;;;;;;5023686;28;20210;-83
2021/10/08 07:19:32;;;;;;;1.30;1.20;;;10.40;99.10;;;;;;5024613;28;20182;-83
2021/10/08 07:21:59;;;;;;;0.50;0.40;;;10.40;99.10;;;;;;5023584;28;20181;-83
2021/10/08 07:24:24;;;;;;;1.17;0.80;;;10.50;99.10;;;;;;5024170;28;20178;-83
2021/10/08 07:26:50;;;;;;;0.70;0.63;;;10.50;99.10;;;;;;5023832;28;20199;-83
2021/10/08 07:29:16;;;;;;;0.77;0.67;;;10.60;99.10;;;;;;5034400;28;20772;-83
2021/10/08 07:31:42;;;;;;;1.13;0.80;;;10.70;99.10;;;;;;5042276;28;20415;-83
2021/10/08 07:34:08;;;;;;;3.20;1.30;;;10.80;99.10;;;;;;5043799;28;20240;-85
2021/10/08 07:36:35;;;;;;;1.38;0.73;;;10.80;99.10;;;;;;5041270;28;20213;-83
2021/10/08 07:39:01;;;;;;;0.77;0.68;;;10.90;99.10;;;;;;5042724;28;20169;-83
2021/10/08 07:41:27;;;;;;;1.50;1.40;;;10.90;99.10;;;;;;5042122;28;20181;-83
2021/10/08 07:43:52;;;;;;;0.70;0.60;;;10.90;99.10;;;;;;5042576;28;20174;-83
2021/10/08 07:46:18;;;;;;;0.50;0.50;;;11.00;99.10;;;;;;5042855;28;20436;-83
2021/10/08 07:48:44;;;;;;;1.40;1.30;;;11.00;99.10;;;;;;5042888;28;20421;-83
2021/10/08 07:51:10;;;;;;;1.15;1.10;;;11.20;99.00;;;;;;5043179;28;20498;-83
2021/10/08 07:53:36;;;;;;;1.33;1.23;;;11.20;98.50;;;;;;5042023;28;20201;-83
2021/10/08 07:56:02;;;;;;;4.17;0.80;;;11.30;98.00;;;;;;5042164;28;20501;-83
2021/10/08 07:58:28;;;;;;;2.35;2.17;;;11.30;98.10;;;;;;5042813;28;20501;-83
2021/10/08 08:00:59;;;;;;;1.70;0.90;;;11.40;97.90;;;;;;5042304;28;20190;-83
2021/10/08 08:03:25;;;;;;;1.00;0.75;;;11.50;98.00;;;;;;5042189;28;20404;-83
2021/10/08 08:05:52;;;;;;;0.98;0.88;;;11.50;98.00;;;;;;5041607;28;20177;-83
2021/10/08 08:08:18;;;;;;;1.63;0.98;;;11.60;97.50;;;;;;5042018;28;20170;-83
2021/10/08 08:10:44;;;;;;;1.58;1.48;;;11.70;96.80;;;;;;5041926;28;20243;-83
2021/10/08 08:13:11;;;;;;;1.92;0.90;;;11.80;96.40;;;;;;5042448;28;20154;-83
2021/10/08 08:15:37;;;;;;;1.42;0.82;;;11.80;96.60;;;;;;5042240;28;20699;-83
2021/10/08 08:18:03;;;;;;;0.70;0.60;;;11.80;97.00;;;;;;5041960;28;20190;-83
2021/10/08 08:20:31;;;;;;;2.23;1.80;;;11.90;96.40;;;;;;5041346;28;20174;-83
2021/10/08 08:22:56;;;;;;;0.82;0.73;;;11.90;96.10;;;;;;5041407;28;20432;-83
2021/10/08 08:25:22;;;;;;;3.17;1.27;;;12.00;96.10;;;;;;5041593;28;20174;-83
2021/10/08 08:27:48;;;;;;;2.97;2.03;;;12.10;96.00;;;;;;5042040;28;20208;-83
2021/10/08 08:30:14;;;;;;;1.27;0.60;;;12.20;95.20;;;;;;5042660;28;20413;-80
2021/10/08 08:32:41;;;;;;;2.97;1.27;;;12.30;95.40;;;;;;5048589;28;20429;-80
2021/10/08 08:35:08;;;;;;;0.50;0.50;;;12.40;95.00;;;;;;5040883;28;20265;-81
2021/10/08 08:37:34;;;;;;;1.38;1.27;;;12.50;95.10;;;;;;5027701;28;20202;-80
2021/10/08 08:40:05;;;;;;;1.05;0.95;;;12.50;95.20;;;;;;5036011;28;20177;-79
2021/10/08 08:42:31;;;;;;;0.73;0.63;;;12.50;95.10;;;;;;5038357;28;20169;-79
2021/10/08 08:44:57;;;;;;;3.63;1.90;;;12.60;95.10;;;;;;5042593;28;20566;-79
2021/10/08 08:47:23;;;;;;;2.43;1.60;;;12.60;94.80;;;;;;5038474;28;20425;-77
2021/10/08 08:49:52;;;;;;;1.30;0.80;;;12.60;94.60;;;;;;5039656;28;20554;-80
2021/10/08 08:52:19;;;;;;;0.93;0.82;;;12.80;94.60;;;;;;5037115;28;20695;-80
2021/10/08 08:54:45;;;;;;;3.60;1.40;;;12.80;94.30;;;;;;5038281;28;20174;-79
2021/10/08 08:57:18;;;;;;;1.05;0.95;;;12.90;94.00;;;;;;5038137;28;20238;-80
2021/10/08 08:59:59;;;;;;;1.52;1.42;;;13.00;94.20;;;;;;5041041;28;20181;-79
2021/10/08 09:02:27;;;;;;;1.17;1.13;;;13.10;94.30;;;;;;5038148;28;20176;-78
2021/10/08 09:04:56;;;;;;;2.15;0.80;;;13.30;93.30;;;;;;5040146;28;20166;-78
2021/10/08 09:07:23;;;;;;;1.15;1.05;;;13.40;93.30;;;;;;5042251;28;20226;-81
2021/10/08 09:09:49;;;;;;;0.98;0.80;;;13.50;92.60;;;;;;5043517;28;20177;-81
2021/10/08 09:12:15;;;;;;;0.90;0.80;;;13.60;92.20;;;;;;5043492;28;20189;-81
2021/10/08 09:14:41;;;;;;;2.85;1.27;;;13.70;92.20;;;;;;5042871;28;20177;-81
2021/10/08 09:17:18;;;;;;;1.00;0.80;;;13.80;91.80;;;;;;5042584;28;20209;-81
2021/10/08 09:19:52;;;;;;;2.50;1.77;;;13.90;91.30;;;;;;5043602;28;20416;-81
2021/10/08 09:22:38;;;;;;;1.35;1.30;;;14.00;91.10;;;;;;5043978;28;20147;-81
2021/10/08 09:25:17;;;;;;;1.08;0.98;;;14.10;91.20;;;;;;5037946;28;20172;-79
2021/10/08 09:27:55;;;;;;;0.88;0.85;;;14.20;91.20;;;;;;5038373;28;20738;-80
2021/10/08 09:30:26;;;;;;;0.80;0.70;;;14.20;90.60;;;;;;5042674;28;20173;-80
2021/10/08 09:32:55;;;;;;;1.55;1.45;;;14.30;90.70;;;;;;5043325;28;20158;-80
2021/10/08 09:35:26;;;;;;;6.47;0.98;;;14.40;90.10;;;;;;5043913;28;20174;-80
2021/10/08 09:38:07;;;;;;;1.15;1.05;;;14.50;89.90;;;;;;5045430;28;20216;-80
2021/10/08 09:40:35;;;;;;;3.25;2.05;;;14.60;89.50;;;;;;5044696;28;20176;-80
2021/10/08 09:43:11;;;;;;;3.95;2.50;;;14.70;88.70;;;;;;5043628;28;20540;-80
2021/10/08 09:45:39;;;;;;;0.95;0.85;;;14.70;88.70;;;;;;5043234;28;20235;-80
2021/10/08 09:48:06;;;;;;;5.43;1.92;;;14.70;88.40;;;;;;5043969;28;20253;-80
2021/10/08 09:50:32;;;;;;;1.40;1.15;;;14.70;88.40;;;;;;5042282;28;20201;-80
2021/10/08 09:53:28;;;;;;;3.03;1.92;;;14.60;88.70;;;;;;5044064;28;20170;-80
2021/10/08 09:55:54;;;;;;;1.10;1.00;;;14.70;89.10;;;;;;5033422;28;20177;-80
2021/10/08 09:58:21;;;;;;;1.58;1.45;;;14.70;89.80;;;;;;5040895;28;20177;-80
2021/10/08 10:01:01;;;;;;;3.85;2.05;;;14.70;88.90;;;;;;5041253;28;20649;-80
2021/10/08 10:03:28;;;;;;;1.77;1.75;;;14.90;88.70;;;;;;5041470;28;20170;-80
2021/10/08 10:05:57;;;;;;;1.08;1.05;;;15.00;89.10;;;;;;5041058;28;20176;-80
2021/10/08 10:08:23;;;;;;;2.70;1.58;;;15.00;89.10;;;;;;5039649;28;20641;-80
2021/10/08 10:10:50;;;;;;;2.87;1.83;;;15.00;88.80;;;;;;5041178;28;20185;-80
2021/10/08 10:13:17;;;;;;;2.28;2.10;;;15.20;88.70;;;;;;5042810;28;20172;-80
2021/10/08 10:15:44;;;;;;;3.80;1.95;;;15.20;88.00;;;;;;5041922;28;20169;-80
2021/10/08 10:18:13;;;;;;;2.45;1.35;;;15.10;88.50;;;;;;5042358;28;20191;-80
2021/10/08 10:20:43;;;;;;;4.38;2.05;;;15.00;88.70;;;;;;5043315;28;20243;-80
2021/10/08 10:23:09;;;;;;;1.20;0.63;;;15.10;88.40;;;;;;5043504;28;20268;-80
2021/10/08 10:25:35;;;;;;;2.25;1.50;;;15.10;88.50;;;;;;5043248;28;20170;-80
2021/10/08 10:28:03;;;;;;;0.85;0.60;;;15.20;88.80;;;;;;5043211;28;20601;-80
2021/10/08 10:30:29;;;;;;;11.48;3.28;;;15.30;87.40;;;;;;5043191;28;20548;-80
2021/10/08 10:32:55;;;;;;;1.33;1.23;;;15.40;88.10;;;;;;5036776;28;20177;-79
2021/10/08 10:35:44;;;;;;;2.05;0.95;;;15.40;87.10;;;;;;5033996;28;20413;-80
2021/10/08 10:38:34;;;;;;;1.73;1.60;;;15.40;87.70;;;;;;5034513;28;20172;-80
2021/10/08 10:41:09;;;;;;;1.67;1.10;;;15.60;87.60;;;;;;5034154;28;20166;-80
2021/10/08 10:43:44;;;;;;;3.90;1.35;;;15.80;86.90;;;;;;5038149;28;20323;-80
2021/10/08 10:52:04;;;;;;;2.25;1.23;;;16.20;85.80;;;;;;5040906;28;20197;-80
2021/10/08 10:54:42;;;;;;;1.75;1.65;;;16.30;83.40;;;;;;5037366;28;20169;-80
2021/10/08 10:57:09;;;;;;;1.73;1.25;;;16.30;84.10;;;;;;5038260;28;20209;-80
2021/10/08 10:59:37;;;;;;;4.60;2.10;;;16.40;83.90;;;;;;5038808;28;20173;-80
2021/10/08 11:04:39;;;;;;;2.30;1.10;;;16.50;83.70;;;;;;5040935;28;20548;-80
2021/10/08 11:07:13;;;;;;;1.60;1.35;;;16.50;83.50;;;;;;5038544;28;20657;-80
2021/10/08 11:09:41;;;;;;;3.95;1.67;;;16.50;84.10;;;;;;5038758;28;20646;-80
2021/10/08 11:12:40;;;;;;;1.95;1.42;;;16.50;83.70;;;;;;5038078;28;20190;-80
2021/10/08 11:15:18;;;;;;;1.17;1.08;;;16.40;84.20;;;;;;5039001;28;20236;-80
2021/10/08 11:17:58;;;;;;;5.28;2.28;;;16.40;84.50;;;;;;5039557;28;20202;-80
2021/10/08 11:20:37;;;;;;;2.22;1.88;;;16.40;84.10;;;;;;5039388;28;20178;-80
2021/10/08 11:23:05;;;;;;;0.80;0.75;;;16.40;84.40;;;;;;5038708;28;20188;-80
2021/10/08 11:25:34;;;;;;;2.58;1.20;;;16.30;85.10;;;;;;5039935;28;20666;-80
2021/10/08 11:28:01;;;;;;;2.20;1.88;;;16.50;84.60;;;;;;5038103;28;20197;-80
2021/10/08 11:30:29;;;;;;;2.10;1.65;;;16.50;84.10;;;;;;5037939;28;20178;-80
2021/10/08 11:32:56;;;;;;;7.38;1.30;;;16.40;83.80;;;;;;5037152;28;20174;-79
2021/10/08 11:35:30;;;;;;;1.58;1.35;;;16.30;84.60;;;;;;5036718;28;20197;-79
2021/10/08 11:37:56;;;;;;;4.40;2.58;;;16.40;85.30;;;;;;5039107;28;20677;-79
2021/10/08 11:40:28;;;;;;;1.70;1.07;;;16.30;84.40;;;;;;5037087;28;20261;-80
2021/10/08 11:43:01;;;;;;;1.88;1.67;;;16.20;85.50;;;;;;5039643;28;20409;-79
2021/10/08 11:45:38;;;;;;;2.75;1.67;;;16.20;86.30;;;;;;5042374;28;20189;-79
2021/10/08 11:51:01;;;;;;;1.08;0.90;;;16.50;85.10;;;;;;5044281;28;20177;-80
2021/10/08 11:53:42;;;;;;;3.05;1.80;;;16.60;83.90;;;;;;5042004;28;20173;-80
2021/10/08 11:56:27;;;;;;;1.20;1.10;;;16.70;83.00;;;;;;5043360;28;20212;-80
2021/10/08 11:59:10;;;;;;;1.15;1.10;;;16.80;83.50;;;;;;5044069;28;20626;-80
2021/10/08 12:01:37;;;;;;;1.95;0.85;;;16.70;82.70;;;;;;5043405;28;20189;-80
2021/10/08 12:04:05;;;;;;;2.17;1.50;;;16.70;84.40;;;;;;5042510;28;20265;-80
2021/10/08 12:06:32;;;;;;;3.08;1.65;;;16.70;84.20;;;;;;5043406;28;20194;-80
2021/10/08 12:09:03;;;;;;;2.80;1.80;;;16.80;83.50;;;;;;5043898;28;20177;-80
2021/10/08 12:11:30;;;;;;;3.22;1.05;;;16.90;84.50;;;;;;5037531;28;20531;-78
2021/10/08 12:13:58;;;;;;;1.10;1.00;;;16.90;83.70;;;;;;5037069;28;20178;-77
2021/10/08 12:16:37;;;;;;;2.33;1.70;;;17.00;83.30;;;;;;5038058;28;20296;-78
2021/10/08 12:19:03;;;;;;;4.38;2.40;;;17.10;84.40;;;;;;5038296;28;20261;-78
2021/10/08 12:21:37;;;;;;;2.95;1.50;;;17.10;83.30;;;;;;5037728;28;20193;-77
2021/10/08 12:24:20;;;;;;;1.15;1.05;;;17.10;83.10;;;;;;5038374;28;20622;-79
2021/10/08 12:26:54;;;;;;;1.25;1.15;;;17.10;81.90;;;;;;5034490;28;20746;-78
2021/10/08 12:29:20;;;;;;;1.52;1.10;;;17.10;81.00;;;;;;5033998;28;20581;-78
2021/10/08 12:31:59;;;;;;;1.07;0.97;;;17.10;81.40;;;;;;5034311;28;20181;-78
2021/10/08 12:34:48;;;;;;;1.05;0.95;;;17.00;82.30;;;;;;5035529;28;20946;-77
2021/10/08 12:37:22;;;;;;;2.92;1.45;;;17.00;83.40;;;;;;5033700;28;20271;-77
2021/10/08 12:40:10;;;;;;;1.40;1.23;;;17.00;81.90;;;;;;5033910;28;20170;-77
2021/10/08 12:42:54;;;;;;;1.88;1.15;;;17.00;82.80;;;;;;5034840;28;20170;-76
2021/10/08 12:45:43;;;;;;;3.58;2.00;;;17.10;82.10;;;;;;5035603;28;20170;-77
2021/10/08 12:48:15;;;;;;;1.73;0.90;;;17.10;83.10;;;;;;5035455;28;20193;-77
2021/10/08 12:50:41;;;;;;;1.60;1.48;;;17.10;82.30;;;;;;5035951;28;20198;-77
2021/10/08 12:53:18;;;;;;;2.90;1.40;;;17.10;82.30;;;;;;5035385;28;20660;-79
2021/10/08 12:55:46;;;;;;;1.75;1.27;;;17.10;82.40;;;;;;5040129;28;20409;-78
2021/10/08 12:58:23;;;;;;;1.20;1.20;;;17.00;82.60;;;;;;5039713;28;20253;-81
2021/10/08 13:00:52;;;;;;;2.20;2.03;;;17.00;83.30;;;;;;5042369;28;20176;-79
2021/10/08 13:03:36;;;;;;;3.42;1.45;;;17.00;83.90;;;;;;5041151;28;20173;-80
2021/10/08 13:06:10;;;;;;;1.70;1.50;;;16.90;83.80;;;;;;5040497;28;20657;-80
2021/10/08 13:08:41;;;;;;;0.98;0.93;;;16.90;83.10;;;;;;5041733;28;20162;-80
2021/10/08 13:11:09;;;;;;;3.63;1.48;;;17.00;83.70;;;;;;5112587;22;20213;-86